Time;durP1;ratioP1;P1;durP2;ratioP2;P2;SDS_P1;SDS_P2;PMS_P1;PMS_P2;Temp;Humidity;BMP_temperature;BMP_pressure;BME280_temperature;BME280_humidity;BME280_pressure;Samples;Min_cycle;Max_cycle;Signal;HPM_P1;HPM_P2
2022/01/27 00:02:32;;;;;;;;;;;19.10;35.70;;;;;;5072895;28;19915;-64
2022/01/27 00:05:31;;;;;;;;;;;19.20;35.70;;;;;;5073314;28;19908;-64
2022/01/27 00:08:08;;;;;;;;;;;19.20;35.70;;;;;;5071048;28;19915;-64
2022/01/27 00:13:13;;;;;;;;;;;19.20;35.70;;;;;;5073589;28;19908;-64
2022/01/27 00:15:40;;;;;;;;;;;19.20;35.70;;;;;;5073572;28;19944;-65
2022/01/27 00:18:13;;;;;;;;;;;19.20;35.70;;;;;;5073406;28;19916;-64
2022/01/27 00:20:39;;;;;;;;;;;19.20;35.70;;;;;;5055379;28;20348;-64
2022/01/27 00:23:04;;;;;;;;;;;19.20;35.70;;;;;;5073318;28;19944;-64
2022/01/27 00:25:30;;;;;;;;;;;19.10;35.70;;;;;;5073165;28;19920;-64
2022/01/27 00:27:55;;;;;;;;;;;19.20;35.70;;;;;;5072078;28;20379;-65
2022/01/27 00:30:20;;;;;;;;;;;19.10;35.70;;;;;;5055213;28;19908;-64
2022/01/27 00:32:46;;;;;;;;;;;19.10;35.70;;;;;;5073299;28;20401;-65
2022/01/27 00:35:12;;;;;;;;;;;19.10;35.70;;;;;;5055278;28;19908;-65
2022/01/27 00:37:38;;;;;;;;;;;19.10;35.70;;;;;;5073180;28;19959;-64
2022/01/27 00:40:04;;;;;;;;;;;19.10;35.70;;;;;;5073043;28;19912;-64
2022/01/27 00:42:30;;;;;;;;;;;19.10;35.70;;;;;;5071881;28;20019;-65
2022/01/27 00:44:57;;;;;;;;;;;19.10;35.70;;;;;;5073150;28;19908;-64
2022/01/27 00:47:22;;;;;;;;;;;19.10;35.70;;;;;;5055204;28;20351;-65
2022/01/27 00:49:48;;;;;;;;;;;19.10;35.70;;;;;;5073081;28;19909;-65
2022/01/27 00:52:20;;;;;;;;;;;19.10;35.70;;;;;;5072999;28;19912;-65
2022/01/27 00:54:46;;;;;;;;;;;19.00;35.70;;;;;;5073086;28;20281;-65
2022/01/27 00:57:28;;;;;;;;;;;19.10;35.70;;;;;;5072984;28;19914;-64
2022/01/27 01:00:02;;;;;;;;;;;19.10;35.70;;;;;;5072948;28;19920;-65
2022/01/27 01:05:14;;;;;;;;;;;19.00;35.70;;;;;;5076859;28;19908;-64
2022/01/27 01:07:43;;;;;;;;;;;19.00;35.70;;;;;;5058913;28;20276;-66
2022/01/27 01:13:47;;;;;;;;;;;19.00;35.70;;;;;;5077081;28;19916;-65
2022/01/27 01:15:45;;;;;;;;;;;19.00;35.60;;;;;;5076455;28;20013;-63
2022/01/27 01:21:03;;;;;;;;;;;19.00;35.70;;;;;;5076875;28;19948;-64
2022/01/27 01:36:47;;;;;;;;;;;19.00;35.60;;;;;;5076220;28;19913;-64
2022/01/27 01:39:13;;;;;;;;;;;19.00;35.70;;;;;;5058207;28;19990;-64
2022/01/27 01:41:39;;;;;;;;;;;19.00;35.60;;;;;;5058101;28;19914;-65
2022/01/27 01:44:05;;;;;;;;;;;19.00;35.60;;;;;;5076009;28;20384;-64
2022/01/27 01:46:30;;;;;;;;;;;19.00;35.60;;;;;;5075866;28;19975;-64
2022/01/27 01:48:56;;;;;;;;;;;19.00;35.60;;;;;;5057856;28;19947;-64
2022/01/27 01:51:29;;;;;;;;;;;19.00;35.60;;;;;;5075945;28;19908;-64
2022/01/27 01:53:55;;;;;;;;;;;19.00;35.60;;;;;;5057887;28;19909;-64
2022/01/27 01:56:20;;;;;;;;;;;18.90;35.60;;;;;;5057862;28;19919;-64
2022/01/27 01:58:46;;;;;;;;;;;19.00;35.60;;;;;;5075586;28;19917;-64
2022/01/27 02:01:12;;;;;;;;;;;19.00;35.60;;;;;;5075569;28;19908;-64
2022/01/27 02:03:37;;;;;;;;;;;19.00;35.60;;;;;;5075535;28;19916;-65
2022/01/27 02:06:03;;;;;;;;;;;19.00;35.60;;;;;;5075536;28;19916;-64
2022/01/27 02:19:12;;;;;;;;;;;19.00;35.60;;;;;;5075187;28;19937;-64
2022/01/27 02:21:43;;;;;;;;;;;19.00;35.60;;;;;;5056949;28;19932;-64
2022/01/27 02:24:09;;;;;;;;;;;18.90;35.60;;;;;;5073814;28;19909;-64
2022/01/27 02:26:34;;;;;;;;;;;19.00;35.50;;;;;;5075253;28;19923;-64
2022/01/27 02:29:00;;;;;;;;;;;19.00;35.50;;;;;;5075113;28;19912;-64
2022/01/27 02:31:25;;;;;;;;;;;18.90;35.50;;;;;;5075190;28;19909;-64
2022/01/27 02:33:57;;;;;;;;;;;19.00;35.50;;;;;;5074889;28;19908;-65
2022/01/27 02:36:22;;;;;;;;;;;18.90;35.50;;;;;;5074880;28;19958;-64
2022/01/27 02:38:48;;;;;;;;;;;18.90;35.50;;;;;;5074817;28;20338;-64
2022/01/27 02:41:16;;;;;;;;;;;18.90;35.50;;;;;;5074873;28;19999;-64
2022/01/27 02:43:41;;;;;;;;;;;18.90;35.50;;;;;;5074992;28;19912;-64
2022/01/27 02:46:15;;;;;;;;;;;18.90;35.50;;;;;;5074620;28;20267;-65
2022/01/27 02:48:41;;;;;;;;;;;19.00;35.50;;;;;;5074786;28;19919;-64
2022/01/27 02:51:06;;;;;;;;;;;18.90;35.50;;;;;;5056689;28;19999;-64
2022/01/27 02:53:31;;;;;;;;;;;18.90;35.60;;;;;;5074630;28;19916;-64
2022/01/27 02:55:57;;;;;;;;;;;18.90;35.50;;;;;;5074709;28;20363;-64
2022/01/27 02:58:22;;;;;;;;;;;18.90;35.60;;;;;;5074694;28;19914;-64
2022/01/27 03:00:48;;;;;;;;;;;18.90;35.50;;;;;;5056714;28;19938;-65
2022/01/27 03:03:13;;;;;;;;;;;18.90;35.50;;;;;;5074573;28;19922;-64
2022/01/27 03:05:39;;;;;;;;;;;18.90;35.50;;;;;;5074464;28;20003;-65
2022/01/27 03:08:04;;;;;;;;;;;18.90;35.50;;;;;;5074395;28;19913;-65
2022/01/27 03:10:34;;;;;;;;;;;18.90;35.60;;;;;;5074442;28;19963;-64
2022/01/27 03:13:00;;;;;;;;;;;18.90;35.50;;;;;;5073139;28;20372;-64
2022/01/27 03:15:27;;;;;;;;;;;18.90;35.60;;;;;;5074415;28;19947;-64
2022/01/27 03:17:52;;;;;;;;;;;18.90;35.50;;;;;;5074203;28;19908;-64
2022/01/27 03:20:18;;;;;;;;;;;18.90;35.50;;;;;;5074113;28;19961;-65
2022/01/27 03:22:44;;;;;;;;;;;18.90;35.50;;;;;;5074008;28;20283;-64
2022/01/27 03:25:09;;;;;;;;;;;18.90;35.50;;;;;;5072914;28;20225;-64
2022/01/27 03:27:35;;;;;;;;;;;18.90;35.50;;;;;;5074201;28;20360;-64
2022/01/27 03:30:00;;;;;;;;;;;18.90;35.50;;;;;;5074055;28;19946;-64
2022/01/27 03:32:27;;;;;;;;;;;18.90;35.50;;;;;;5073971;28;19908;-64
2022/01/27 03:34:52;;;;;;;;;;;18.80;35.50;;;;;;5073910;28;20375;-64
2022/01/27 03:37:18;;;;;;;;;;;18.90;35.50;;;;;;5073915;28;19912;-64
2022/01/27 03:39:43;;;;;;;;;;;18.90;35.50;;;;;;5074059;28;19909;-64
2022/01/27 03:42:09;;;;;;;;;;;18.90;35.60;;;;;;5073845;28;19970;-64
2022/01/27 03:44:35;;;;;;;;;;;18.90;35.50;;;;;;5074072;28;19915;-64
2022/01/27 03:47:00;;;;;;;;;;;18.90;35.50;;;;;;5073729;28;19993;-64
2022/01/27 03:49:26;;;;;;;;;;;18.90;35.50;;;;;;5073741;28;20075;-65
2022/01/27 03:51:51;;;;;;;;;;;18.80;35.50;;;;;;5073878;28;19954;-64
2022/01/27 03:54:17;;;;;;;;;;;18.80;35.50;;;;;;5073645;28;20364;-64
2022/01/27 03:56:43;;;;;;;;;;;18.80;35.50;;;;;;5055994;28;19908;-64
2022/01/27 03:59:08;;;;;;;;;;;18.90;35.50;;;;;;5073516;28;20303;-64
2022/01/27 04:01:34;;;;;;;;;;;18.90;35.50;;;;;;5073570;28;20425;-64
2022/01/27 04:04:01;;;;;;;;;;;18.80;35.50;;;;;;5073512;28;19913;-64
2022/01/27 04:06:35;;;;;;;;;;;18.80;35.50;;;;;;5055493;28;20007;-64
2022/01/27 04:09:01;;;;;;;;;;;18.80;35.60;;;;;;5073499;28;20383;-64
2022/01/27 04:11:27;;;;;;;;;;;18.80;35.50;;;;;;5073450;28;20273;-64
2022/01/27 04:13:52;;;;;;;;;;;18.80;35.50;;;;;;5073437;28;20053;-64
2022/01/27 04:16:18;;;;;;;;;;;18.80;35.60;;;;;;5073299;28;19909;-65
2022/01/27 04:18:45;;;;;;;;;;;18.80;35.60;;;;;;5073266;28;19947;-64
2022/01/27 04:21:11;;;;;;;;;;;18.80;35.50;;;;;;5073323;28;19909;-65
2022/01/27 04:23:37;;;;;;;;;;;18.80;35.50;;;;;;5073524;28;19915;-64
2022/01/27 04:26:04;;;;;;;;;;;18.80;35.50;;;;;;5073280;28;19923;-64
2022/01/27 04:28:32;;;;;;;;;;;18.80;35.50;;;;;;5073292;28;19908;-64
2022/01/27 04:31:00;;;;;;;;;;;18.80;35.50;;;;;;5073219;28;19908;-64
2022/01/27 04:33:29;;;;;;;;;;;18.80;35.50;;;;;;5073139;28;19908;-64
2022/01/27 04:35:58;;;;;;;;;;;18.80;35.50;;;;;;5074862;28;19916;-65
2022/01/27 04:38:29;;;;;;;;;;;18.80;35.50;;;;;;5077330;28;20403;-64
2022/01/27 04:41:20;;;;;;;;;;;18.80;35.50;;;;;;5077433;28;19944;-64
2022/01/27 04:43:54;;;;;;;;;;;18.80;35.50;;;;;;5077163;28;19909;-64
2022/01/27 04:48:51;;;;;;;;;;;18.80;35.50;;;;;;5077224;28;19991;-64
2022/01/27 04:51:19;;;;;;;;;;;18.80;35.50;;;;;;5076978;28;20417;-64
2022/01/27 04:56:27;;;;;;;;;;;18.80;35.50;;;;;;5076504;28;19908;-64
2022/01/27 04:58:58;;;;;;;;;;;18.80;35.50;;;;;;5076346;28;20027;-65
2022/01/27 05:01:31;;;;;;;;;;;18.80;35.50;;;;;;5076526;28;19916;-64
2022/01/27 05:04:02;;;;;;;;;;;18.80;35.50;;;;;;5076740;28;20423;-64
2022/01/27 05:06:28;;;;;;;;;;;18.80;35.50;;;;;;5076945;28;20280;-64
2022/01/27 05:08:54;;;;;;;;;;;18.80;35.50;;;;;;5076530;28;19916;-64
2022/01/27 05:11:28;;;;;;;;;;;18.80;35.50;;;;;;5076488;28;19908;-64
2022/01/27 05:13:58;;;;;;;;;;;18.80;35.50;;;;;;5058293;28;20363;-64
2022/01/27 05:16:24;;;;;;;;;;;18.80;35.50;;;;;;5076169;28;20311;-65
2022/01/27 05:18:49;;;;;;;;;;;18.80;35.50;;;;;;5076268;28;19916;-65
2022/01/27 05:21:15;;;;;;;;;;;18.80;35.50;;;;;;5076416;28;20364;-65
2022/01/27 05:23:40;;;;;;;;;;;18.80;35.50;;;;;;5076309;28;19909;-64
2022/01/27 05:26:06;;;;;;;;;;;18.80;35.50;;;;;;5075977;28;19917;-64
2022/01/27 05:28:31;;;;;;;;;;;18.90;35.40;;;;;;5076502;28;19909;-64
2022/01/27 05:30:57;;;;;;;;;;;18.90;35.40;;;;;;5076300;28;20257;-64
2022/01/27 05:33:22;;;;;;;;;;;18.90;35.40;;;;;;5076186;28;20288;-64
2022/01/27 05:35:48;;;;;;;;;;;18.90;35.30;;;;;;5076063;28;19908;-64
2022/01/27 05:38:14;;;;;;;;;;;19.00;35.30;;;;;;5076095;28;19920;-65
2022/01/27 05:40:40;;;;;;;;;;;19.00;35.20;;;;;;5075987;28;19947;-64
2022/01/27 05:43:06;;;;;;;;;;;19.00;35.30;;;;;;5076197;28;19944;-64
2022/01/27 05:45:31;;;;;;;;;;;19.00;35.20;;;;;;5076197;28;20001;-64
2022/01/27 05:47:56;;;;;;;;;;;19.00;35.20;;;;;;5074616;28;19914;-64
2022/01/27 05:50:22;;;;;;;;;;;19.00;35.20;;;;;;5075890;28;20379;-64
2022/01/27 05:52:47;;;;;;;;;;;19.10;35.20;;;;;;5075751;28;19923;-64
2022/01/27 05:55:13;;;;;;;;;;;19.10;35.20;;;;;;5075604;28;19909;-64
2022/01/27 05:57:38;;;;;;;;;;;19.10;35.20;;;;;;5075867;28;19934;-65
2022/01/27 06:00:05;;;;;;;;;;;19.10;35.20;;;;;;5075487;28;19962;-64
2022/01/27 06:02:30;;;;;;;;;;;19.10;35.20;;;;;;5075558;28;20319;-64
2022/01/27 06:04:55;;;;;;;;;;;19.10;35.20;;;;;;5075514;28;19995;-64
2022/01/27 06:07:21;;;;;;;;;;;19.10;35.20;;;;;;5074249;28;20280;-65
2022/01/27 06:09:46;;;;;;;;;;;19.20;35.20;;;;;;5057579;28;20272;-64
2022/01/27 06:12:12;;;;;;;;;;;19.10;35.20;;;;;;5075535;28;19916;-64
2022/01/27 06:14:37;;;;;;;;;;;19.10;35.20;;;;;;5075824;28;19908;-65
2022/01/27 06:17:03;;;;;;;;;;;19.20;35.20;;;;;;5075373;28;20269;-64
2022/01/27 06:19:28;;;;;;;;;;;19.20;35.10;;;;;;5075385;28;20378;-63
2022/01/27 06:21:54;;;;;;;;;;;19.20;35.20;;;;;;5075883;28;19908;-64
2022/01/27 06:24:20;;;;;;;;;;;19.20;35.20;;;;;;5075283;28;19992;-64
2022/01/27 06:26:45;;;;;;;;;;;19.20;35.10;;;;;;5075174;28;20257;-64
2022/01/27 06:29:11;;;;;;;;;;;19.20;35.20;;;;;;5057142;28;19912;-64
2022/01/27 06:31:36;;;;;;;;;;;19.20;35.20;;;;;;5075048;28;20247;-64
2022/01/27 06:34:02;;;;;;;;;;;19.20;35.20;;;;;;5075074;28;19923;-65
2022/01/27 06:36:27;;;;;;;;;;;19.20;35.20;;;;;;5075087;28;19919;-64
2022/01/27 06:38:53;;;;;;;;;;;19.30;35.20;;;;;;5074982;28;19909;-64
2022/01/27 06:41:18;;;;;;;;;;;19.20;35.10;;;;;;5074925;28;19940;-64
2022/01/27 06:43:44;;;;;;;;;;;19.20;35.10;;;;;;5074988;28;19999;-65
2022/01/27 06:46:09;;;;;;;;;;;19.30;35.20;;;;;;5074846;28;19916;-64
2022/01/27 06:48:34;;;;;;;;;;;19.30;35.20;;;;;;5074885;28;19908;-65
2022/01/27 06:51:04;;;;;;;;;;;19.30;35.20;;;;;;5074695;28;19937;-64
2022/01/27 06:53:29;;;;;;;;;;;19.30;35.10;;;;;;5075036;28;20094;-64
2022/01/27 06:55:54;;;;;;;;;;;19.30;35.20;;;;;;5074691;28;19909;-64
2022/01/27 06:58:20;;;;;;;;;;;19.30;35.20;;;;;;5074172;28;19938;-64
2022/01/27 07:00:45;;;;;;;;;;;19.30;35.20;;;;;;5074610;28;19958;-65
2022/01/27 07:03:11;;;;;;;;;;;19.30;35.10;;;;;;5074486;28;19963;-65
2022/01/27 07:05:37;;;;;;;;;;;19.30;35.20;;;;;;5074431;28;19917;-64
2022/01/27 07:08:03;;;;;;;;;;;19.30;35.10;;;;;;5074491;28;19908;-64
2022/01/27 07:10:28;;;;;;;;;;;19.30;35.10;;;;;;5074395;28;19909;-64
2022/01/27 07:12:54;;;;;;;;;;;19.40;35.20;;;;;;5074372;28;19946;-64
2022/01/27 07:15:19;;;;;;;;;;;19.30;35.20;;;;;;5056626;28;19914;-65
2022/01/27 07:17:47;;;;;;;;;;;19.30;35.20;;;;;;5074113;28;19908;-65
2022/01/27 07:20:12;;;;;;;;;;;19.40;35.20;;;;;;5074082;28;20352;-64
2022/01/27 07:22:38;;;;;;;;;;;19.40;35.30;;;;;;5074272;28;19908;-64
2022/01/27 07:25:05;;;;;;;;;;;19.30;35.30;;;;;;5074266;28;19966;-64
2022/01/27 07:27:33;;;;;;;;;;;19.40;35.20;;;;;;5074338;28;19919;-64
2022/01/27 07:29:59;;;;;;;;;;;19.40;35.20;;;;;;5074106;28;19954;-65
2022/01/27 07:32:25;;;;;;;;;;;19.30;35.30;;;;;;5074053;28;19908;-64
2022/01/27 07:34:50;;;;;;;;;;;19.30;35.30;;;;;;5073848;28;19985;-65
2022/01/27 07:37:16;;;;;;;;;;;19.40;35.30;;;;;;5074372;28;19970;-65
2022/01/27 07:39:41;;;;;;;;;;;19.40;35.40;;;;;;5076096;28;19909;-65
2022/01/27 07:42:07;;;;;;;;;;;19.40;35.40;;;;;;5076246;28;19909;-65
2022/01/27 07:44:32;;;;;;;;;;;19.40;35.40;;;;;;5074955;28;19908;-64
2022/01/27 07:46:58;;;;;;;;;;;19.40;35.40;;;;;;5073754;28;19924;-64
2022/01/27 07:49:23;;;;;;;;;;;19.40;35.40;;;;;;5073671;28;20287;-64
2022/01/27 07:51:49;;;;;;;;;;;19.40;35.40;;;;;;5073653;28;19954;-64
2022/01/27 07:54:15;;;;;;;;;;;19.40;35.50;;;;;;5073595;28;19988;-64
2022/01/27 07:56:40;;;;;;;;;;;19.40;35.50;;;;;;5073563;28;19928;-65
2022/01/27 07:59:06;;;;;;;;;;;19.40;35.50;;;;;;5073399;28;19920;-64
2022/01/27 08:01:31;;;;;;;;;;;19.40;35.50;;;;;;5055576;28;20000;-64
2022/01/27 08:03:57;;;;;;;;;;;19.40;35.50;;;;;;5073401;28;20364;-64
2022/01/27 08:06:22;;;;;;;;;;;19.40;35.50;;;;;;5055425;28;19916;-61
2022/01/27 08:08:49;;;;;;;;;;;19.50;35.50;;;;;;5086811;28;20386;-64
2022/01/27 08:11:14;;;;;;;;;;;19.50;35.60;;;;;;5073658;28;19908;-65
2022/01/27 08:13:40;;;;;;;;;;;19.50;35.50;;;;;;5092853;28;20317;-65
2022/01/27 08:16:05;;;;;;;;;;;19.50;35.50;;;;;;5074669;28;20377;-65
2022/01/27 08:18:30;;;;;;;;;;;19.50;35.50;;;;;;5092401;28;19919;-65
2022/01/27 08:20:56;;;;;;;;;;;19.50;35.60;;;;;;5092620;28;19912;-64
2022/01/27 08:23:21;;;;;;;;;;;19.50;35.60;;;;;;5092813;28;19914;-64
2022/01/27 08:25:59;;;;;;;;;;;19.50;35.70;;;;;;5092386;28;19916;-65
2022/01/27 08:28:31;;;;;;;;;;;19.50;35.80;;;;;;5092203;28;19912;-65
2022/01/27 08:30:57;;;;;;;;;;;19.50;35.80;;;;;;5092812;28;20332;-64
2022/01/27 08:33:24;;;;;;;;;;;19.50;35.90;;;;;;5074550;28;20271;-63
2022/01/27 08:35:50;;;;;;;;;;;19.50;35.90;;;;;;5092513;28;19962;-63
2022/01/27 08:38:15;;;;;;;;;;;19.50;35.90;;;;;;5091707;28;19912;-64
2022/01/27 08:40:41;;;;;;;;;;;19.50;35.90;;;;;;5092411;28;19912;-65
2022/01/27 08:43:08;;;;;;;;;;;19.50;35.90;;;;;;5092379;28;19908;-66
2022/01/27 08:45:33;;;;;;;;;;;19.50;36.00;;;;;;5092536;28;19916;-65
2022/01/27 08:48:00;;;;;;;;;;;19.50;36.00;;;;;;5091898;28;19908;-64
2022/01/27 08:50:26;;;;;;;;;;;19.50;36.00;;;;;;5092752;28;19953;-64
2022/01/27 08:52:51;;;;;;;;;;;19.50;36.00;;;;;;5092403;28;19908;-65
2022/01/27 08:55:17;;;;;;;;;;;19.50;36.00;;;;;;5092123;28;19956;-64
2022/01/27 08:57:43;;;;;;;;;;;19.50;36.00;;;;;;5083075;28;20411;-65
2022/01/27 09:00:09;;;;;;;;;;;19.60;36.00;;;;;;5057691;28;20364;-65
2022/01/27 09:02:35;;;;;;;;;;;19.50;36.10;;;;;;5059643;28;20009;-64
2022/01/27 09:05:00;;;;;;;;;;;19.50;36.10;;;;;;5071702;28;19966;-65
2022/01/27 09:07:26;;;;;;;;;;;19.50;36.20;;;;;;5076270;28;20423;-65
2022/01/27 09:09:51;;;;;;;;;;;19.50;36.10;;;;;;5091795;28;19916;-65
2022/01/27 09:12:17;;;;;;;;;;;19.50;36.20;;;;;;5073653;28;19923;-66
2022/01/27 09:14:43;;;;;;;;;;;19.50;36.30;;;;;;5076647;28;19919;-65
2022/01/27 09:17:09;;;;;;;;;;;19.50;36.40;;;;;;5070408;28;19909;-65
2022/01/27 09:19:38;;;;;;;;;;;19.50;36.50;;;;;;5089972;28;19931;-65
2022/01/27 09:22:08;;;;;;;;;;;19.50;36.40;;;;;;5093893;28;19947;-65
2022/01/27 09:24:50;;;;;;;;;;;19.50;36.50;;;;;;5084711;28;19912;-65
2022/01/27 09:27:16;;;;;;;;;;;19.60;36.50;;;;;;5075614;28;20314;-62
2022/01/27 09:29:42;;;;;;;;;;;19.60;36.50;;;;;;5082614;28;20288;-64
2022/01/27 09:32:07;;;;;;;;;;;19.40;36.80;;;;;;5075141;28;20408;-61
2022/01/27 09:34:33;;;;;;;;;;;19.50;36.60;;;;;;5075708;28;19948;-62
2022/01/27 09:37:02;;;;;;;;;;;19.50;36.50;;;;;;5085235;28;19912;-64
2022/01/27 09:39:28;;;;;;;;;;;19.60;36.60;;;;;;5095188;28;20347;-64
2022/01/27 09:41:54;;;;;;;;;;;19.50;37.20;;;;;;5093255;28;19916;-65
2022/01/27 09:44:23;;;;;;;;;;;18.80;38.80;;;;;;5092507;28;19912;-63
2022/01/27 09:46:49;;;;;;;;;;;19.20;37.60;;;;;;5092822;28;20272;-66
2022/01/27 09:49:18;;;;;;;;;;;19.40;37.10;;;;;;5079466;28;19912;-66
2022/01/27 09:51:45;;;;;;;;;;;19.50;37.00;;;;;;5094361;28;19912;-65
2022/01/27 09:54:13;;;;;;;;;;;19.50;37.20;;;;;;5095322;28;19943;-64
2022/01/27 09:56:40;;;;;;;;;;;19.60;37.10;;;;;;5085280;28;19920;-64
2022/01/27 09:59:06;;;;;;;;;;;19.60;37.10;;;;;;5074413;28;19958;-65
2022/01/27 10:01:32;;;;;;;;;;;19.60;37.00;;;;;;5074269;28;19909;-65
2022/01/27 10:03:59;;;;;;;;;;;19.60;37.10;;;;;;5087989;28;20069;-65
2022/01/27 10:06:31;;;;;;;;;;;19.60;37.20;;;;;;5095066;28;20329;-65
2022/01/27 10:09:16;;;;;;;;;;;19.60;37.10;;;;;;5094489;28;20010;-65
2022/01/27 10:11:43;;;;;;;;;;;19.60;37.20;;;;;;5065319;28;19920;-65
2022/01/27 10:14:19;;;;;;;;;;;19.70;37.10;;;;;;5084583;28;20407;-64
2022/01/27 10:16:45;;;;;;;;;;;19.70;37.20;;;;;;5074457;28;20368;-65
2022/01/27 10:19:11;;;;;;;;;;;19.70;37.20;;;;;;5073946;28;20035;-65
2022/01/27 10:21:38;;;;;;;;;;;19.60;37.20;;;;;;5074462;28;19909;-65
2022/01/27 10:24:27;;;;;;;;;;;19.70;37.20;;;;;;5081467;28;19956;-65
2022/01/27 10:27:16;;;;;;;;;;;19.70;37.20;;;;;;5073376;28;20030;-65
2022/01/27 10:30:01;;;;;;;;;;;19.70;37.20;;;;;;5081671;28;19961;-65
2022/01/27 10:32:36;;;;;;;;;;;19.70;37.20;;;;;;5074239;28;19913;-65
2022/01/27 10:35:02;;;;;;;;;;;19.70;37.20;;;;;;5073505;28;19919;-65
2022/01/27 10:37:28;;;;;;;;;;;19.70;37.30;;;;;;5074277;28;19913;-66
2022/01/27 10:39:53;;;;;;;;;;;19.70;37.30;;;;;;5055834;28;19916;-65
2022/01/27 10:42:22;;;;;;;;;;;19.70;37.30;;;;;;5083606;28;19913;-65
2022/01/27 10:44:55;;;;;;;;;;;19.70;37.20;;;;;;5074005;28;19912;-65
2022/01/27 10:47:25;;;;;;;;;;;19.70;37.30;;;;;;5088073;28;19920;-65
2022/01/27 10:49:57;;;;;;;;;;;19.70;37.20;;;;;;5094074;28;20351;-63
2022/01/27 10:54:57;;;;;;;;;;;19.80;37.10;;;;;;5073826;28;20360;-64
2022/01/27 10:57:24;;;;;;;;;;;19.70;37.10;;;;;;5073980;28;20315;-64
2022/01/27 10:59:49;;;;;;;;;;;19.80;37.20;;;;;;5073186;28;19921;-63
2022/01/27 11:02:14;;;;;;;;;;;19.80;37.30;;;;;;5073796;28;19909;-64
2022/01/27 11:04:41;;;;;;;;;;;19.80;37.40;;;;;;5073538;28;19916;-64
2022/01/27 11:07:09;;;;;;;;;;;19.80;37.50;;;;;;5055423;28;19916;-64
2022/01/27 11:09:37;;;;;;;;;;;19.70;37.50;;;;;;5091598;28;19912;-64
2022/01/27 11:12:07;;;;;;;;;;;19.70;37.50;;;;;;5091768;28;19912;-64
2022/01/27 11:14:33;;;;;;;;;;;19.70;37.50;;;;;;5092103;28;19912;-64
2022/01/27 11:17:02;;;;;;;;;;;19.70;37.40;;;;;;5076016;28;19912;-65
2022/01/27 11:22:21;;;;;;;;;;;19.80;37.30;;;;;;5083181;28;19913;-64
2022/01/27 11:27:31;;;;;;;;;;;19.80;37.50;;;;;;5060869;28;20279;-65
2022/01/27 11:29:59;;;;;;;;;;;19.80;37.50;;;;;;5092954;28;19912;-64
2022/01/27 11:32:45;;;;;;;;;;;19.80;37.50;;;;;;5082239;28;19912;-64
2022/01/27 11:35:18;;;;;;;;;;;19.80;37.50;;;;;;5092482;28;20399;-64
2022/01/27 11:37:48;;;;;;;;;;;19.80;37.50;;;;;;5070864;28;19909;-65
2022/01/27 11:40:41;;;;;;;;;;;19.80;37.50;;;;;;5073493;28;20016;-66
2022/01/27 11:43:11;;;;;;;;;;;19.80;37.50;;;;;;5093274;28;20315;-65
2022/01/27 11:45:37;;;;;;;;;;;19.80;37.50;;;;;;5093113;28;19916;-65
2022/01/27 11:48:08;;;;;;;;;;;19.80;37.40;;;;;;5086087;28;19917;-66
2022/01/27 11:50:37;;;;;;;;;;;19.50;37.90;;;;;;5081542;28;19966;-65
2022/01/27 11:53:07;;;;;;;;;;;19.40;37.90;;;;;;5072534;28;19952;-66
2022/01/27 11:55:33;;;;;;;;;;;19.50;37.90;;;;;;5088815;28;19912;-64
2022/01/27 11:57:59;;;;;;;;;;;19.60;37.80;;;;;;5066360;28;20376;-67
2022/01/27 12:00:26;;;;;;;;;;;19.70;37.50;;;;;;5072078;28;19959;-66
2022/01/27 12:03:00;;;;;;;;;;;19.70;37.60;;;;;;5074691;28;19946;-64
2022/01/27 12:05:26;;;;;;;;;;;19.70;37.80;;;;;;5075143;28;19912;-63
2022/01/27 12:08:10;;;;;;;;;;;19.70;37.80;;;;;;5092467;28;19916;-64
2022/01/27 12:10:48;;;;;;;;;;;19.80;37.60;;;;;;5091989;28;19908;-64
2022/01/27 12:16:10;;;;;;;;;;;19.80;37.80;;;;;;5078772;28;19916;-65
2022/01/27 12:18:39;;;;;;;;;;;19.80;37.70;;;;;;5089584;28;20003;-64
2022/01/27 12:21:23;;;;;;;;;;;19.80;37.70;;;;;;5091189;28;20057;-63
2022/01/27 12:24:07;;;;;;;;;;;19.90;37.50;;;;;;5072343;28;19919;-63
2022/01/27 12:26:47;;;;;;;;;;;19.90;37.40;;;;;;5088529;28;19966;-62
2022/01/27 12:29:29;;;;;;;;;;;19.90;37.60;;;;;;5089645;28;19908;-62
2022/01/27 12:31:56;;;;;;;;;;;19.90;37.90;;;;;;5092542;28;19919;-62
2022/01/27 12:34:22;;;;;;;;;;;19.90;37.90;;;;;;5079832;28;19935;-63
2022/01/27 12:37:04;;;;;;;;;;;19.90;37.90;;;;;;5091159;28;20371;-63
2022/01/27 12:39:31;;;;;;;;;;;19.90;37.90;;;;;;5092543;28;19914;-61
2022/01/27 12:41:58;;;;;;;;;;;19.90;37.90;;;;;;5074717;28;19916;-62
2022/01/27 12:44:26;;;;;;;;;;;19.90;37.80;;;;;;5086856;28;19915;-63
2022/01/27 12:47:01;;;;;;;;;;;19.90;37.70;;;;;;5079992;28;19977;-63
2022/01/27 12:49:38;;;;;;;;;;;19.90;37.50;;;;;;5073339;28;19957;-63
2022/01/27 12:52:08;;;;;;;;;;;19.80;37.60;;;;;;5090686;28;20398;-63
2022/01/27 12:54:34;;;;;;;;;;;19.90;38.10;;;;;;5107634;28;20289;-63
2022/01/27 12:57:00;;;;;;;;;;;19.90;38.00;;;;;;5094307;28;19919;-63
2022/01/27 12:59:30;;;;;;;;;;;20.00;38.00;;;;;;5096524;28;19920;-63
2022/01/27 13:01:57;;;;;;;;;;;19.90;38.00;;;;;;5078535;28;20037;-63
2022/01/27 13:04:23;;;;;;;;;;;20.00;38.10;;;;;;5060077;28;19916;-63
2022/01/27 13:06:56;;;;;;;;;;;19.90;38.00;;;;;;5076230;28;20275;-63
2022/01/27 13:09:22;;;;;;;;;;;20.00;38.00;;;;;;5078127;28;20312;-63
2022/01/27 13:11:50;;;;;;;;;;;20.00;38.10;;;;;;5093980;28;19959;-63
2022/01/27 13:14:16;;;;;;;;;;;20.00;38.10;;;;;;5084074;28;19955;-63
2022/01/27 13:16:43;;;;;;;;;;;20.00;38.10;;;;;;5096747;28;19915;-63
2022/01/27 13:19:21;;;;;;;;;;;20.00;38.00;;;;;;5096247;28;19912;-63
2022/01/27 13:21:52;;;;;;;;;;;20.00;38.00;;;;;;5095463;28;19912;-64
2022/01/27 13:24:18;;;;;;;;;;;20.00;38.10;;;;;;5080159;28;20352;-64
2022/01/27 13:26:45;;;;;;;;;;;20.00;37.70;;;;;;5095575;28;19960;-64
2022/01/27 13:29:14;;;;;;;;;;;20.00;37.70;;;;;;5095661;28;19908;-64
2022/01/27 13:31:40;;;;;;;;;;;20.00;38.10;;;;;;5078030;28;20394;-64
2022/01/27 13:34:06;;;;;;;;;;;20.00;38.10;;;;;;5075295;28;19921;-63
2022/01/27 13:36:36;;;;;;;;;;;20.00;38.30;;;;;;5075359;28;19912;-63
2022/01/27 13:41:35;;;;;;;;;;;20.00;38.30;;;;;;5075537;28;19908;-66
2022/01/27 13:44:06;;;;;;;;;;;20.00;38.40;;;;;;5056926;28;20430;-67
2022/01/27 13:46:32;;;;;;;;;;;20.00;38.30;;;;;;5072196;28;19927;-65
2022/01/27 13:49:04;;;;;;;;;;;20.00;38.40;;;;;;5083106;28;19912;-66
2022/01/27 13:51:29;;;;;;;;;;;20.00;38.30;;;;;;5075496;28;19912;-65
2022/01/27 13:54:05;;;;;;;;;;;20.00;38.50;;;;;;5074323;28;20307;-64
2022/01/27 13:56:37;;;;;;;;;;;20.00;38.50;;;;;;5075125;28;19912;-63
2022/01/27 13:59:11;;;;;;;;;;;20.00;38.50;;;;;;5074450;28;19994;-63
2022/01/27 14:01:37;;;;;;;;;;;20.00;38.40;;;;;;5056602;28;19919;-63
2022/01/27 14:04:03;;;;;;;;;;;20.00;38.20;;;;;;5056537;28;19915;-63
2022/01/27 14:06:29;;;;;;;;;;;19.80;38.70;;;;;;5074334;28;19916;-64
2022/01/27 14:08:57;;;;;;;;;;;19.50;40.00;;;;;;5081774;28;19912;-64
2022/01/27 14:11:36;;;;;;;;;;;19.60;39.20;;;;;;5074309;28;19917;-64
2022/01/27 14:14:04;;;;;;;;;;;19.80;38.50;;;;;;5074205;28;19919;-65
2022/01/27 14:16:32;;;;;;;;;;;19.90;38.70;;;;;;5074093;28;20353;-65
2022/01/27 14:19:08;;;;;;;;;;;19.90;38.60;;;;;;5083437;28;19990;-64
2022/01/27 14:21:39;;;;;;;;;;;20.00;38.60;;;;;;5093610;28;20349;-63
2022/01/27 14:24:10;;;;;;;;;;;20.00;38.60;;;;;;5093782;28;19934;-64
2022/01/27 14:26:41;;;;;;;;;;;20.00;38.70;;;;;;5074026;28;19924;-65
2022/01/27 14:29:14;;;;;;;;;;;20.00;38.60;;;;;;5071572;28;19919;-65
2022/01/27 14:31:44;;;;;;;;;;;20.00;38.30;;;;;;5088862;28;19949;-65
2022/01/27 14:34:10;;;;;;;;;;;20.00;38.50;;;;;;5057097;28;19912;-64
2022/01/27 14:36:40;;;;;;;;;;;20.00;38.40;;;;;;5073910;28;19949;-64
2022/01/27 14:39:06;;;;;;;;;;;20.00;38.40;;;;;;5073954;28;19931;-64
2022/01/27 14:41:31;;;;;;;;;;;20.00;38.70;;;;;;5074491;28;20364;-63
2022/01/27 14:43:57;;;;;;;;;;;20.00;38.60;;;;;;5055515;28;19931;-64
2022/01/27 14:46:40;;;;;;;;;;;20.00;38.70;;;;;;5073583;28;20009;-63
2022/01/27 14:49:07;;;;;;;;;;;20.10;38.60;;;;;;5071599;28;19913;-64
2022/01/27 14:51:34;;;;;;;;;;;20.00;38.60;;;;;;5072456;28;19909;-64
2022/01/27 14:54:00;;;;;;;;;;;20.10;38.60;;;;;;5092156;28;19912;-63
2022/01/27 14:56:26;;;;;;;;;;;20.00;38.70;;;;;;5075577;28;20386;-63
2022/01/27 14:58:52;;;;;;;;;;;20.10;38.60;;;;;;5092428;28;20058;-63
2022/01/27 15:01:20;;;;;;;;;;;20.10;38.40;;;;;;5091200;28;20414;-63
2022/01/27 15:03:45;;;;;;;;;;;20.00;38.80;;;;;;5093195;28;20002;-63
2022/01/27 15:06:11;;;;;;;;;;;19.80;39.00;;;;;;5075357;28;20058;-63
2022/01/27 15:08:36;;;;;;;;;;;19.80;38.80;;;;;;5092239;28;19909;-64
2022/01/27 15:11:02;;;;;;;;;;;20.00;38.70;;;;;;5093543;28;20339;-64
2022/01/27 15:13:28;;;;;;;;;;;20.00;38.80;;;;;;5093769;28;19954;-63
2022/01/27 15:18:49;;;;;;;;;;;20.10;39.00;;;;;;5093813;28;19957;-64